Time;durP1;ratioP1;P1;durP2;ratioP2;P2;SDS_P1;SDS_P2;PMS_P1;PMS_P2;Temp;Humidity;BMP_temperature;BMP_pressure;BME280_temperature;BME280_humidity;BME280_pressure;Samples;Min_cycle;Max_cycle;Signal;HPM_P1;HPM_P2
2023/05/27 00:00:17;;;;;;;21.10;10.60;;;8.80;83.80;;;;;;5034375;28;20169;-87
2023/05/27 00:02:42;;;;;;;21.33;12.13;;;8.80;83.50;;;;;;5034241;28;20196;-88
2023/05/27 00:05:08;;;;;;;20.07;11.03;;;8.70;83.30;;;;;;5034370;28;20653;-87
2023/05/27 00:08:03;;;;;;;25.93;12.03;;;8.70;83.40;;;;;;5035124;28;20180;-87
2023/05/27 00:10:29;;;;;;;20.47;11.07;;;8.60;83.30;;;;;;5031216;28;20185;-88
2023/05/27 00:12:54;;;;;;;19.87;11.27;;;8.60;83.50;;;;;;5034542;28;20204;-88
2023/05/27 00:18:32;;;;;;;24.43;12.30;;;8.60;83.30;;;;;;5035965;28;20722;-87
2023/05/27 00:21:32;;;;;;;21.73;11.70;;;8.60;83.10;;;;;;5033865;28;20180;-87
2023/05/27 00:24:46;;;;;;;;;;;;;;;;;;;;;
2023/05/27 00:28:13;;;;;;;24.73;11.27;;;8.50;82.80;;;;;;5027809;28;20195;-88
2023/05/27 00:30:38;;;;;;;18.40;11.33;;;8.30;83.00;;;;;;5034958;28;20188;-87
2023/05/27 00:33:04;;;;;;;18.87;11.67;;;8.40;83.10;;;;;;5035011;28;20200;-87
2023/05/27 00:35:29;;;;;;;23.27;11.93;;;8.30;83.00;;;;;;5033627;28;20177;-88
2023/05/27 00:37:56;;;;;;;23.27;11.27;;;8.30;83.10;;;;;;5035040;28;20291;-88
2023/05/27 00:40:24;;;;;;;19.30;11.63;;;8.30;83.10;;;;;;5034923;28;20219;-88
2023/05/27 00:42:50;;;;;;;25.47;11.93;;;8.20;83.30;;;;;;5033801;28;20674;-85
2023/05/27 00:45:15;;;;;;;26.17;12.07;;;8.10;83.70;;;;;;5033493;28;20327;-87
2023/05/27 00:47:41;;;;;;;32.30;25.80;;;8.20;83.80;;;;;;5033357;28;20264;-88
2023/05/27 00:50:07;;;;;;;32.37;24.53;;;8.10;83.80;;;;;;5034991;28;20176;-88
2023/05/27 00:52:33;;;;;;;34.50;24.33;;;8.10;83.70;;;;;;5034495;28;20708;-88
2023/05/27 00:54:59;;;;;;;25.53;22.97;;;8.10;83.60;;;;;;5034563;28;20544;-87
2023/05/27 00:57:26;;;;;;;28.53;24.90;;;8.10;83.40;;;;;;5034585;28;20177;-87
2023/05/27 00:59:52;;;;;;;25.40;22.97;;;8.10;83.30;;;;;;5033290;28;20204;-87
2023/05/27 01:02:18;;;;;;;28.07;25.10;;;8.00;83.20;;;;;;5033123;28;20216;-86
2023/05/27 01:04:46;;;;;;;28.07;25.07;;;8.00;83.10;;;;;;5032955;28;20231;-87
2023/05/27 01:07:29;;;;;;;33.00;25.67;;;8.00;83.00;;;;;;5033073;28;20169;-87
2023/05/27 01:10:13;;;;;;;28.23;25.00;;;7.90;82.80;;;;;;5032936;28;20194;-86
2023/05/27 01:12:50;;;;;;;28.33;23.30;;;7.80;82.80;;;;;;5032971;28;20197;-86
2023/05/27 01:15:18;;;;;;;23.57;11.80;;;7.80;83.10;;;;;;5034453;28;20160;-86
2023/05/27 01:17:46;;;;;;;27.57;11.23;;;7.80;83.30;;;;;;5032871;28;20281;-87
2023/05/27 01:20:14;;;;;;;23.97;11.43;;;7.70;84.00;;;;;;5032975;28;20212;-86
2023/05/27 01:22:41;;;;;;;26.93;11.03;;;7.70;84.70;;;;;;5034020;28;20271;-86
2023/05/27 01:25:09;;;;;;;21.70;10.83;;;7.70;84.80;;;;;;5033649;28;20200;-87
2023/05/27 01:27:34;;;;;;;18.90;10.47;;;7.80;84.70;;;;;;5032818;28;20654;-86
2023/05/27 01:30:00;;;;;;;29.17;12.07;;;7.70;84.40;;;;;;5032831;28;20191;-86
2023/05/27 01:32:43;;;;;;;14.70;10.93;;;7.70;84.20;;;;;;5032887;28;20282;-86
2023/05/27 01:35:13;;;;;;;17.23;11.07;;;7.70;84.00;;;;;;5032923;28;20168;-87
2023/05/27 01:37:43;;;;;;;22.93;11.27;;;7.70;83.80;;;;;;5033995;28;20159;-87
2023/05/27 01:40:09;;;;;;;20.67;11.00;;;7.70;83.80;;;;;;5032522;28;20181;-88
2023/05/27 01:42:35;;;;;;;21.13;10.37;;;7.60;83.70;;;;;;5032617;28;20201;-88
2023/05/27 01:45:04;;;;;;;15.03;9.53;;;7.50;84.00;;;;;;5032257;28;20205;-88
2023/05/27 01:47:30;;;;;;;27.17;10.53;;;7.50;84.70;;;;;;5032319;28;20232;-88
2023/05/27 01:49:56;;;;;;;13.87;10.30;;;7.50;84.80;;;;;;5032360;28;20172;-88
2023/05/27 01:52:21;;;;;;;19.93;10.43;;;7.50;84.60;;;;;;5032305;28;20211;-87
2023/05/27 01:54:47;;;;;;;18.27;10.40;;;7.40;84.50;;;;;;5033633;28;20184;-87
2023/05/27 01:57:12;;;;;;;17.00;10.40;;;7.50;84.30;;;;;;5033727;28;20620;-88
2023/05/27 01:59:38;;;;;;;15.40;10.47;;;7.50;84.10;;;;;;5032376;28;20573;-88
2023/05/27 02:02:04;;;;;;;19.97;10.70;;;7.50;83.90;;;;;;5033304;28;20706;-87
2023/05/27 02:04:30;;;;;;;19.33;10.40;;;7.40;83.80;;;;;;5032070;28;20177;-87
2023/05/27 02:06:56;;;;;;;24.03;10.07;;;7.40;83.80;;;;;;5033406;28;20180;-88
2023/05/27 02:09:22;;;;;;;18.50;10.67;;;7.30;83.70;;;;;;5033399;28;20169;-87
2023/05/27 02:11:47;;;;;;;22.03;11.20;;;7.30;83.90;;;;;;5031955;28;20284;-87
2023/05/27 02:14:13;;;;;;;18.90;10.20;;;7.30;84.20;;;;;;5032140;28;20658;-88
2023/05/27 02:16:39;;;;;;;19.83;10.80;;;7.30;84.20;;;;;;5033226;28;20182;-88
2023/05/27 02:19:05;;;;;;;18.97;9.80;;;7.30;84.00;;;;;;5033253;28;20183;-87
2023/05/27 02:21:31;;;;;;;17.90;9.73;;;7.20;83.90;;;;;;5031813;28;20203;-87
2023/05/27 02:23:57;;;;;;;22.10;10.00;;;7.20;83.80;;;;;;5033410;28;20569;-87
2023/05/27 02:26:23;;;;;;;18.10;10.53;;;7.20;83.70;;;;;;5031866;28;20291;-88
2023/05/27 02:28:48;;;;;;;15.80;9.70;;;7.10;83.80;;;;;;5033089;28;20573;-88
2023/05/27 02:31:14;;;;;;;17.73;10.17;;;7.20;83.90;;;;;;5032973;28;20196;-88
2023/05/27 02:33:39;;;;;;;19.43;9.83;;;7.10;83.90;;;;;;5031822;28;20165;-88
2023/05/27 02:36:06;;;;;;;22.23;9.87;;;7.10;84.10;;;;;;5032974;28;20177;-88
2023/05/27 02:38:31;;;;;;;16.47;9.70;;;7.10;84.20;;;;;;5034657;28;20181;-88
2023/05/27 02:40:57;;;;;;;19.60;9.33;;;7.10;84.00;;;;;;5037248;28;20179;-88
2023/05/27 02:43:23;;;;;;;26.10;23.43;;;7.00;83.80;;;;;;5035861;28;20553;-88
2023/05/27 02:45:48;;;;;;;28.40;24.87;;;7.00;83.80;;;;;;5035651;28;20342;-88
2023/05/27 02:48:13;;;;;;;27.47;24.53;;;6.90;84.00;;;;;;5035505;28;20196;-88
2023/05/27 02:50:39;;;;;;;27.60;24.53;;;6.90;84.00;;;;;;5035809;28;20176;-88
2023/05/27 02:53:05;;;;;;;24.53;22.03;;;6.90;84.00;;;;;;5035311;28;20625;-88
2023/05/27 02:55:30;;;;;;;30.57;23.70;;;6.90;84.20;;;;;;5035459;28;20295;-88
2023/05/27 02:57:56;;;;;;;26.00;23.13;;;6.90;84.40;;;;;;5035605;28;20271;-88
2023/05/27 03:00:21;;;;;;;33.67;24.77;;;6.90;84.50;;;;;;5036852;28;20655;-88
2023/05/27 03:02:47;;;;;;;32.57;17.27;;;6.90;84.40;;;;;;5035422;28;20213;-88
2023/05/27 03:05:13;;;;;;;16.73;8.97;;;6.90;84.40;;;;;;5035577;28;20205;-87
2023/05/27 03:07:41;;;;;;;25.20;9.57;;;6.90;84.50;;;;;;5035409;28;20212;-88
2023/05/27 03:10:07;;;;;;;15.40;9.20;;;6.90;84.60;;;;;;5036491;28;20192;-88
2023/05/27 03:12:33;;;;;;;18.00;9.73;;;6.80;84.50;;;;;;5035156;28;20283;-88
2023/05/27 03:14:59;;;;;;;15.77;9.53;;;6.80;84.50;;;;;;5035148;28;20188;-88
2023/05/27 03:17:24;;;;;;;18.67;10.43;;;6.80;84.40;;;;;;5036321;28;20184;-88
2023/05/27 03:19:50;;;;;;;19.00;9.60;;;6.80;84.40;;;;;;5035994;28;20318;-88
2023/05/27 03:22:16;;;;;;;13.50;8.37;;;6.80;84.60;;;;;;5035013;28;20253;-87
2023/05/27 03:24:42;;;;;;;15.83;8.30;;;6.80;84.60;;;;;;5034851;28;20209;-88
2023/05/27 03:27:07;;;;;;;19.40;9.77;;;6.80;84.40;;;;;;5036187;28;20176;-88
2023/05/27 03:29:33;;;;;;;21.37;10.90;;;6.80;84.40;;;;;;5034900;28;20602;-88
2023/05/27 03:31:59;;;;;;;18.27;10.20;;;6.80;84.40;;;;;;5034748;28;20267;-88
2023/05/27 03:34:25;;;;;;;19.20;9.73;;;;;;;;;;5035040;28;20227;-88
2023/05/27 03:36:50;;;;;;;21.20;10.17;;;6.80;84.20;;;;;;5034701;28;20203;-88
2023/05/27 03:39:16;;;;;;;15.80;8.27;;;6.90;84.20;;;;;;5034590;28;20722;-88
2023/05/27 03:41:42;;;;;;;20.67;9.90;;;7.00;84.10;;;;;;5036024;28;20275;-88
2023/05/27 03:44:08;;;;;;;20.23;9.63;;;7.00;84.10;;;;;;5034579;28;20209;-88
2023/05/27 03:46:35;;;;;;;18.80;9.70;;;7.10;84.00;;;;;;5034433;28;20239;-87
2023/05/27 03:49:00;;;;;;;24.90;9.67;;;7.10;84.20;;;;;;5034450;28;20184;-88
2023/05/27 03:51:26;;;;;;;19.87;9.83;;;7.20;84.30;;;;;;5034362;28;20208;-87
2023/05/27 03:53:52;;;;;;;21.00;9.53;;;7.30;84.30;;;;;;5035605;28;20171;-88
2023/05/27 03:56:17;;;;;;;19.70;8.63;;;7.30;84.20;;;;;;5034437;28;20188;-88
2023/05/27 03:58:43;;;;;;;26.43;9.93;;;7.30;84.60;;;;;;5034350;28;20181;-88
2023/05/27 04:01:09;;;;;;;19.80;9.33;;;7.40;84.90;;;;;;5034395;28;20674;-88
2023/05/27 04:03:35;;;;;;;18.03;9.20;;;7.60;84.70;;;;;;5034398;28;20180;-87
2023/05/27 04:06:00;;;;;;;20.67;9.97;;;7.70;84.50;;;;;;5035561;28;20327;-87
2023/05/27 04:08:27;;;;;;;21.87;9.40;;;7.70;84.30;;;;;;5035548;28;20169;-88
2023/05/27 04:10:53;;;;;;;21.53;8.90;;;7.70;84.30;;;;;;5035163;28;20643;-88
2023/05/27 04:13:20;;;;;;;22.37;8.67;;;7.80;84.30;;;;;;5034330;28;20222;-88
2023/05/27 04:15:46;;;;;;;26.83;9.50;;;7.80;84.20;;;;;;5034106;28;20180;-88
2023/05/27 04:18:11;;;;;;;18.53;8.63;;;7.80;84.20;;;;;;5033895;28;20275;-88
2023/05/27 04:20:40;;;;;;;22.60;8.50;;;7.70;84.20;;;;;;5033871;28;20181;-88
2023/05/27 04:23:08;;;;;;;17.97;8.83;;;7.70;84.60;;;;;;5033879;28;20751;-88
2023/05/27 04:25:34;;;;;;;22.63;9.40;;;7.80;84.70;;;;;;5033716;28;20300;-88
2023/05/27 04:28:03;;;;;;;24.90;17.10;;;7.90;84.70;;;;;;5033793;28;20260;-88
2023/05/27 04:30:29;;;;;;;23.97;16.90;;;7.80;84.60;;;;;;5033860;28;20211;-88
2023/05/27 04:32:55;;;;;;;20.53;17.27;;;7.90;84.60;;;;;;5033645;28;20196;-88
2023/05/27 04:35:21;;;;;;;29.93;16.37;;;8.00;84.70;;;;;;5033683;28;20685;-88
2023/05/27 04:37:47;;;;;;;20.50;15.90;;;8.00;84.60;;;;;;5034905;28;20177;-88
2023/05/27 04:40:13;;;;;;;22.10;16.07;;;8.00;84.60;;;;;;5033558;28;20276;-88
2023/05/27 04:42:39;;;;;;;22.80;15.07;;;8.10;84.70;;;;;;5034990;28;20216;-88
2023/05/27 04:45:08;;;;;;;20.20;14.40;;;8.10;84.70;;;;;;5033428;28;20575;-88
2023/05/27 04:47:36;;;;;;;27.97;16.10;;;8.20;84.70;;;;;;5033489;28;20177;-88
2023/05/27 04:50:03;;;;;;;27.20;15.60;;;8.20;84.80;;;;;;5033369;28;20184;-88
2023/05/27 04:52:29;;;;;;;35.13;17.33;;;8.20;85.00;;;;;;5027966;22;20367;-88
2023/05/27 04:54:55;;;;;;;29.67;10.90;;;8.30;85.50;;;;;;5013478;28;20228;-88
2023/05/27 04:57:21;;;;;;;22.03;10.13;;;8.40;85.80;;;;;;5013434;28;20181;-88
2023/05/27 05:00:18;;;;;;;28.50;10.13;;;8.40;86.10;;;;;;5013006;28;20721;-88
2023/05/27 05:02:47;;;;;;;28.87;9.97;;;8.50;86.50;;;;;;5013351;28;20212;-89
2023/05/27 05:05:13;;;;;;;26.27;10.10;;;8.50;86.70;;;;;;5013343;28;20734;-88
2023/05/27 05:07:41;;;;;;;25.50;9.40;;;8.50;87.00;;;;;;5013289;28;20178;-88
2023/05/27 05:10:13;;;;;;;26.93;9.90;;;8.50;87.10;;;;;;5013439;28;20173;-88
2023/05/27 05:12:38;;;;;;;32.07;10.40;;;8.50;87.30;;;;;;5014378;28;20193;-88
2023/05/27 05:15:05;;;;;;;29.13;11.50;;;8.60;87.60;;;;;;5013311;28;20268;-88
2023/05/27 05:17:31;;;;;;;32.60;10.07;;;8.60;87.70;;;;;;5013035;28;20651;-88
2023/05/27 05:19:56;;;;;;;29.17;10.03;;;8.70;87.80;;;;;;5013026;28;20192;-88
2023/05/27 05:22:23;;;;;;;35.53;11.00;;;8.70;87.90;;;;;;5012888;28;20683;-88
2023/05/27 05:24:49;;;;;;;35.13;11.03;;;8.80;87.90;;;;;;5013021;28;20212;-88
2023/05/27 05:27:15;;;;;;;32.50;11.80;;;8.80;88.00;;;;;;5013003;28;20184;-88
2023/05/27 05:29:41;;;;;;;26.73;9.77;;;8.80;88.10;;;;;;5012796;28;20181;-88
2023/05/27 05:32:08;;;;;;;29.43;9.07;;;8.90;88.20;;;;;;5013234;28;20706;-87
2023/05/27 05:34:34;;;;;;;34.03;9.60;;;9.00;88.20;;;;;;5012952;28;20594;-88
2023/05/27 05:36:59;;;;;;;26.20;9.57;;;9.10;88.00;;;;;;5012892;28;20215;-88
2023/05/27 05:39:25;;;;;;;25.97;8.97;;;9.30;88.00;;;;;;5012888;28;20182;-87
2023/05/27 05:41:50;;;;;;;34.03;10.23;;;9.30;87.80;;;;;;5012668;28;20193;-87
2023/05/27 05:44:17;;;;;;;29.77;9.83;;;9.30;87.80;;;;;;5012672;28;20191;-87
2023/05/27 05:46:42;;;;;;;34.70;10.00;;;9.40;87.50;;;;;;5012488;28;20679;-88
2023/05/27 05:49:08;;;;;;;32.23;9.17;;;9.50;87.30;;;;;;5012593;28;20208;-88
2023/05/27 05:51:33;;;;;;;21.87;9.43;;;9.50;87.10;;;;;;5012698;28;20244;-88
2023/05/27 05:53:59;;;;;;;35.93;9.77;;;9.50;86.80;;;;;;5012559;28;20196;-88
2023/05/27 05:56:28;;;;;;;26.13;9.50;;;9.70;86.90;;;;;;5013783;28;20548;-88
2023/05/27 05:58:53;;;;;;;26.70;9.87;;;9.80;86.90;;;;;;5012663;28;20272;-88
2023/05/27 06:01:19;;;;;;;29.00;10.17;;;9.90;86.80;;;;;;5012336;28;20643;-89
2023/05/27 06:03:45;;;;;;;35.70;9.73;;;9.90;86.30;;;;;;5013869;28;20235;-87
2023/05/27 06:06:11;;;;;;;34.83;11.10;;;10.00;86.20;;;;;;5013661;28;20288;-88
2023/05/27 06:08:36;;;;;;;29.93;10.40;;;10.00;86.10;;;;;;5012295;28;20264;-88
2023/05/27 06:11:02;;;;;;;28.50;9.13;;;10.10;86.30;;;;;;5012351;28;20173;-88
2023/05/27 06:13:28;;;;;;;22.83;8.93;;;10.10;86.00;;;;;;5011570;28;20174;-88
2023/05/27 06:15:55;;;;;;;35.97;8.73;;;10.20;85.90;;;;;;5013510;28;20181;-88
2023/05/27 06:18:21;;;;;;;24.17;9.63;;;10.30;86.10;;;;;;5013622;28;20200;-88
2023/05/27 06:20:46;;;;;;;32.33;10.20;;;10.30;85.50;;;;;;5012448;28;20203;-88
2023/05/27 06:23:12;;;;;;;35.33;10.47;;;10.40;85.50;;;;;;5012197;28;20197;-88
2023/05/27 06:25:38;;;;;;;29.63;10.03;;;10.40;85.50;;;;;;5013385;28;20686;-87
2023/05/27 06:28:03;;;;;;;36.33;10.67;;;10.60;85.60;;;;;;5013446;28;20178;-88
2023/05/27 06:30:28;;;;;;;29.30;9.60;;;10.70;85.40;;;;;;5013283;28;20647;-88
2023/05/27 06:32:54;;;;;;;26.60;10.53;;;10.70;85.00;;;;;;5012087;28;20204;-89
2023/05/27 06:35:20;;;;;;;31.67;17.00;;;10.80;84.80;;;;;;5012112;28;20181;-89
2023/05/27 06:37:45;;;;;;;30.40;16.07;;;10.80;85.10;;;;;;5012061;28;20185;-89
2023/05/27 06:40:11;;;;;;;33.80;15.97;;;11.10;85.10;;;;;;5012044;28;20181;-88
2023/05/27 06:42:37;;;;;;;30.93;16.47;;;11.20;84.80;;;;;;5012020;28;20606;-88
2023/05/27 06:45:03;;;;;;;25.77;15.53;;;11.40;84.50;;;;;;5011848;28;20212;-89
2023/05/27 06:47:29;;;;;;;33.10;16.13;;;11.30;83.90;;;;;;5011937;28;20185;-89
2023/05/27 06:49:54;;;;;;;25.83;16.90;;;11.50;84.20;;;;;;5011944;28;20627;-89
2023/05/27 06:52:20;;;;;;;23.67;10.27;;;11.70;84.00;;;;;;5012925;28;20216;-89
2023/05/27 06:54:47;;;;;;;36.80;11.10;;;11.60;83.70;;;;;;5011934;28;20181;-89
2023/05/27 06:57:15;;;;;;;25.37;10.17;;;11.70;84.20;;;;;;5013744;28;20182;-89
2023/05/27 06:59:41;;;;;;;31.23;11.17;;;11.90;84.30;;;;;;5011878;28;20662;-88
2023/05/27 07:02:07;;;;;;;22.97;10.40;;;12.00;83.30;;;;;;5013101;28;20190;-89
2023/05/27 07:04:33;;;;;;;28.33;12.23;;;12.00;82.60;;;;;;5011812;28;20663;-89
2023/05/27 07:06:59;;;;;;;31.60;10.07;;;12.00;82.80;;;;;;5011791;28;20178;-88
2023/05/27 07:09:24;;;;;;;24.00;9.83;;;12.20;83.20;;;;;;5012906;28;20179;-88
2023/05/27 07:11:50;;;;;;;26.67;10.77;;;12.40;83.00;;;;;;5011803;28;20208;-89
2023/05/27 07:14:16;;;;;;;28.87;10.73;;;12.30;81.50;;;;;;5013065;28;20177;-88
2023/05/27 07:16:41;;;;;;;23.87;10.43;;;12.10;82.30;;;;;;5011872;28;20185;-90
2023/05/27 07:19:07;;;;;;;28.17;10.10;;;12.20;83.60;;;;;;5013159;28;20205;-89
2023/05/27 07:21:33;;;;;;;25.80;10.20;;;12.40;83.40;;;;;;5011638;28;20239;-89
2023/05/27 07:24:03;;;;;;;29.13;9.80;;;12.50;83.10;;;;;;5013278;28;20532;-89
2023/05/27 07:26:29;;;;;;;23.53;9.90;;;12.80;83.10;;;;;;5016679;28;20193;-89
2023/05/27 07:28:57;;;;;;;28.97;9.63;;;13.00;82.30;;;;;;5016500;28;20648;-88
2023/05/27 07:31:22;;;;;;;26.23;9.73;;;13.10;81.40;;;;;;5015183;28;20225;-88
2023/05/27 07:33:48;;;;;;;23.57;10.10;;;13.30;81.30;;;;;;5016195;28;20199;-88
2023/05/27 07:36:13;;;;;;;20.90;9.40;;;13.40;80.30;;;;;;5016608;28;20216;-89
2023/05/27 07:38:39;;;;;;;27.37;11.30;;;13.40;79.70;;;;;;5015174;28;20189;-89
2023/05/27 07:41:04;;;;;;;31.77;12.10;;;13.50;79.80;;;;;;5016264;28;20173;-89
2023/05/27 07:43:30;;;;;;;29.37;10.63;;;13.30;80.00;;;;;;5015096;28;20180;-88
2023/05/27 07:45:55;;;;;;;23.70;10.13;;;13.40;80.50;;;;;;5016436;28;20677;-89
2023/05/27 07:48:21;;;;;;;22.07;10.27;;;13.50;79.80;;;;;;5014979;28;20177;-89
2023/05/27 07:50:46;;;;;;;23.40;11.10;;;13.70;78.50;;;;;;5014917;28;20188;-89
2023/05/27 07:53:12;;;;;;;25.63;11.03;;;13.70;79.00;;;;;;5014985;28;20552;-89
2023/05/27 07:55:37;;;;;;;20.63;10.00;;;13.80;77.70;;;;;;5014743;28;20200;-88
2023/05/27 07:58:03;;;;;;;23.47;10.67;;;13.90;78.00;;;;;;5015794;28;20181;-89
2023/05/27 08:00:28;;;;;;;22.33;10.90;;;13.80;76.70;;;;;;5014647;28;20228;-89
2023/05/27 08:02:54;;;;;;;28.83;11.80;;;14.00;77.40;;;;;;5015768;28;20189;-89
2023/05/27 08:05:20;;;;;;;23.60;11.73;;;14.10;76.40;;;;;;5014415;28;20201;-89
2023/05/27 08:07:45;;;;;;;27.97;11.93;;;14.20;76.40;;;;;;5014454;28;20181;-88
2023/05/27 08:10:11;;;;;;;23.60;11.10;;;14.20;77.10;;;;;;5014461;28;20181;-89
2023/05/27 08:12:37;;;;;;;27.00;10.90;;;14.30;76.90;;;;;;5014262;28;20689;-89
2023/05/27 08:15:02;;;;;;;21.20;10.98;;;14.50;76.50;;;;;;5014179;28;20208;-89
2023/05/27 08:17:28;;;;;;;24.98;11.30;;;14.80;76.40;;;;;;5014725;28;20662;-89
2023/05/27 08:19:53;;;;;;;28.02;11.32;;;14.90;75.40;;;;;;5014738;28;20173;-89
2023/05/27 08:22:19;;;;;;;27.63;12.52;;;15.10;75.50;;;;;;5014095;28;20232;-89
2023/05/27 08:24:44;;;;;;;27.02;12.45;;;15.00;74.90;;;;;;5014103;28;20181;-90
2023/05/27 08:27:15;;;;;;;27.05;14.05;;;15.30;74.70;;;;;;5016038;28;20618;-89
2023/05/27 08:29:41;;;;;;;30.10;13.65;;;15.20;73.10;;;;;;5013972;28;20161;-89
2023/05/27 08:32:06;;;;;;;25.33;13.75;;;15.30;72.90;;;;;;5013958;28;20200;-89
2023/05/27 08:34:32;;;;;;;25.27;14.07;;;15.40;72.30;;;;;;5014778;28;20219;-89
2023/05/27 08:36:57;;;;;;;25.55;13.93;;;15.50;72.10;;;;;;5013867;28;20220;-89
2023/05/27 08:39:23;;;;;;;28.05;13.73;;;15.60;72.90;;;;;;5016356;28;20188;-90
2023/05/27 08:41:49;;;;;;;29.02;14.10;;;15.90;73.10;;;;;;5014124;28;20193;-89
2023/05/27 08:44:15;;;;;;;23.27;14.98;;;15.60;70.70;;;;;;5013681;28;20177;-89
2023/05/27 08:46:41;;;;;;;21.92;13.73;;;15.50;71.00;;;;;;5013640;28;20284;-88
2023/05/27 08:49:07;;;;;;;25.23;15.80;;;15.60;72.10;;;;;;5014001;28;20581;-89
2023/05/27 08:51:35;;;;;;;25.98;15.32;;;15.40;70.00;;;;;;5013617;28;20339;-89
2023/05/27 08:54:01;;;;;;;25.90;15.35;;;15.30;69.70;;;;;;5015329;28;20173;-90
2023/05/27 08:56:30;;;;;;;24.00;15.23;;;15.20;69.40;;;;;;5015056;28;20205;-89
2023/05/27 08:58:58;;;;;;;28.42;15.85;;;15.40;70.20;;;;;;5013595;28;20221;-89
2023/05/27 09:01:24;;;;;;;23.67;14.85;;;15.40;69.10;;;;;;5014808;28;20197;-89
2023/05/27 09:03:50;;;;;;;23.00;15.60;;;15.80;69.70;;;;;;5013339;28;20186;-89
2023/05/27 09:06:16;;;;;;;24.80;14.55;;;16.00;68.00;;;;;;5013293;28;20216;-89
2023/05/27 09:08:41;;;;;;;25.42;14.90;;;16.30;66.80;;;;;;5013267;28;20174;-89
2023/05/27 09:11:08;;;;;;;18.67;14.35;;;16.40;68.70;;;;;;5013197;28;20185;-89
2023/05/27 09:13:34;;;;;;;24.00;15.50;;;16.70;70.10;;;;;;5013096;28;20205;-89
2023/05/27 09:16:04;;;;;;;26.77;16.00;;;16.60;67.60;;;;;;5013136;28;20201;-89
2023/05/27 09:18:31;;;;;;;23.77;15.07;;;16.60;67.60;;;;;;5013176;28;20233;-89
2023/05/27 09:20:57;;;;;;;21.85;14.75;;;16.40;69.30;;;;;;5014481;28;20545;-90
2023/05/27 09:23:23;;;;;;;27.17;15.68;;;16.80;69.00;;;;;;5014364;28;20177;-89
2023/05/27 09:25:52;;;;;;;22.38;16.45;;;17.30;66.80;;;;;;5014229;28;20201;-89
2023/05/27 09:28:21;;;;;;;25.05;17.10;;;17.40;63.50;;;;;;5014497;28;20220;-89
2023/05/27 09:30:51;;;;;;;22.52;16.75;;;17.00;65.30;;;;;;5012875;28;20197;-90
2023/05/27 09:33:23;;;;;;;26.45;17.60;;;16.90;65.90;;;;;;5012969;28;20514;-90
2023/05/27 09:35:49;;;;;;;23.48;17.23;;;17.20;65.80;;;;;;5013786;28;20174;-89
2023/05/27 09:38:14;;;;;;;22.52;16.67;;;17.40;62.80;;;;;;5015458;28;20170;-90
2023/05/27 09:40:44;;;;;;;27.85;18.27;;;17.40;65.50;;;;;;5014499;28;20181;-90
2023/05/27 09:43:14;;;;;;;24.95;17.95;;;17.70;65.20;;;;;;5014006;28;20197;-89
2023/05/27 09:45:40;;;;;;;26.77;17.63;;;17.70;64.20;;;;;;5013570;28;20335;-89
2023/05/27 09:48:07;;;;;;;20.00;16.65;;;17.00;64.40;;;;;;5014045;28;20212;-90
2023/05/27 09:50:34;;;;;;;29.00;17.55;;;17.40;65.50;;;;;;5013863;28;20540;-89
2023/05/27 09:53:01;;;;;;;37.22;17.60;;;17.30;64.90;;;;;;5012436;28;20212;-90
2023/05/27 09:55:29;;;;;;;23.52;15.82;;;17.30;66.10;;;;;;5012592;28;20193;-89
2023/05/27 09:57:55;;;;;;;27.35;16.40;;;17.70;63.20;;;;;;5012848;28;20262;-89
2023/05/27 10:00:21;;;;;;;33.63;16.65;;;17.80;62.10;;;;;;5013836;28;20308;-89
2023/05/27 10:02:48;;;;;;;19.35;15.10;;;18.10;61.80;;;;;;5012473;28;20231;-89
2023/05/27 10:05:15;;;;;;;22.92;16.55;;;18.20;61.80;;;;;;5012540;28;20212;-89
2023/05/27 10:07:43;;;;;;;19.80;15.80;;;18.60;61.70;;;;;;5012591;28;20200;-89
2023/05/27 10:10:11;;;;;;;25.90;16.70;;;18.60;61.20;;;;;;5013715;28;20186;-89
2023/05/27 10:12:37;;;;;;;25.58;16.92;;;18.00;61.10;;;;;;5012378;28;20697;-90
2023/05/27 10:15:04;;;;;;;28.85;18.02;;;18.30;60.80;;;;;;5012759;28;20183;-90
2023/05/27 10:17:54;;;;;;;23.15;17.40;;;18.70;59.70;;;;;;5013686;28;20196;-91
2023/05/27 10:20:29;;;;;;;26.08;18.95;;;19.20;55.80;;;;;;5023051;28;20257;-91
2023/05/27 10:22:56;;;;;;;21.52;18.13;;;19.10;57.00;;;;;;5024176;28;20260;-91
2023/05/27 10:25:22;;;;;;;29.35;17.90;;;19.00;56.00;;;;;;5023917;28;20216;-91
2023/05/27 10:27:48;;;;;;;24.67;18.08;;;19.20;55.40;;;;;;5026149;28;20169;-90
2023/05/27 10:30:15;;;;;;;25.33;17.80;;;18.70;58.20;;;;;;5027725;28;20256;-90
2023/05/27 10:32:59;;;;;;;29.88;18.35;;;18.90;59.20;;;;;;5021850;28;20284;-92
2023/05/27 10:35:39;;;;;;;23.42;17.60;;;19.20;58.20;;;;;;5023430;28;20184;-91
2023/05/27 10:38:14;;;;;;;24.67;18.48;;;19.60;55.00;;;;;;5025191;28;20172;-91
2023/05/27 10:40:40;;;;;;;24.33;18.60;;;19.00;55.60;;;;;;5019019;28;20172;-91
2023/05/27 10:43:14;;;;;;;28.88;18.45;;;18.70;57.50;;;;;;5018162;28;20193;-91
2023/05/27 10:45:40;;;;;;;25.92;18.13;;;19.60;56.00;;;;;;5013641;28;20193;-87
2023/05/27 10:48:15;;;;;;;22.40;18.88;;;19.50;54.20;;;;;;5015401;28;20541;-89
2023/05/27 10:50:50;;;;;;;29.63;18.85;;;18.90;57.50;;;;;;5012915;28;20188;-89
2023/05/27 10:53:19;;;;;;;22.40;18.48;;;18.70;58.20;;;;;;5020284;28;20316;-91
2023/05/27 10:55:48;;;;;;;26.33;19.00;;;19.20;57.30;;;;;;5022519;28;20535;-90
2023/05/27 10:58:15;;;;;;;21.75;18.40;;;19.10;52.80;;;;;;5014066;28;20169;-90
2023/05/27 11:00:42;;;;;;;23.65;18.15;;;18.90;53.50;;;;;;5017445;28;20674;-89
2023/05/27 11:03:27;;;;;;;23.25;18.77;;;19.00;56.20;;;;;;5015546;28;20193;-90
2023/05/27 11:06:07;;;;;;;22.85;18.40;;;19.20;56.50;;;;;;5017061;28;20217;-90
2023/05/27 11:08:34;;;;;;;28.13;18.70;;;18.80;55.30;;;;;;5015659;28;20169;-90
2023/05/27 11:11:07;;;;;;;27.02;18.90;;;19.10;58.40;;;;;;5016923;28;20166;-90
2023/05/27 11:13:35;;;;;;;23.65;18.38;;;19.70;55.90;;;;;;5016455;28;20170;-90
2023/05/27 11:16:05;;;;;;;19.65;17.65;;;20.20;55.80;;;;;;5015626;28;20237;-90
2023/05/27 11:18:49;;;;;;;25.92;19.20;;;20.80;52.40;;;;;;5017785;28;20188;-91
2023/05/27 11:21:16;;;;;;;26.38;18.77;;;20.00;51.60;;;;;;5020860;28;20204;-90
2023/05/27 11:23:43;;;;;;;24.27;19.00;;;20.10;53.20;;;;;;5021324;28;20170;-91
2023/05/27 11:26:25;;;;;;;24.55;19.50;;;20.10;51.50;;;;;;5024321;28;20197;-91
2023/05/27 11:28:53;;;;;;;24.75;20.23;;;19.90;53.30;;;;;;5025272;28;20173;-92
2023/05/27 11:31:19;;;;;;;24.38;18.73;;;20.30;52.80;;;;;;5021115;28;20641;-91
2023/05/27 11:33:48;;;;;;;25.60;19.17;;;20.70;49.70;;;;;;5027737;28;20154;-91
2023/05/27 11:36:16;;;;;;;25.98;19.20;;;20.00;53.20;;;;;;5018785;28;20188;-87
2023/05/27 11:38:53;;;;;;;25.15;18.52;;;20.50;53.40;;;;;;5014952;28;20177;-87
2023/05/27 11:41:20;;;;;;;23.45;18.17;;;20.90;50.40;;;;;;5014847;28;20203;-87
2023/05/27 11:43:51;;;;;;;24.38;18.60;;;21.20;51.50;;;;;;5015345;28;20237;-90
2023/05/27 11:46:17;;;;;;;22.67;18.83;;;20.80;52.00;;;;;;5018475;28;20681;-90
2023/05/27 11:48:43;;;;;;;23.77;19.42;;;20.30;52.00;;;;;;5019173;28;20228;-88
2023/05/27 11:51:10;;;;;;;25.23;18.35;;;20.30;53.50;;;;;;5023348;28;20193;-90
2023/05/27 11:53:41;;;;;;;21.20;18.63;;;20.70;52.30;;;;;;5031124;28;20182;-90
2023/05/27 11:56:07;;;;;;;28.15;18.55;;;20.80;52.20;;;;;;5032247;28;20200;-91
2023/05/27 11:58:33;;;;;;;25.38;18.50;;;21.00;50.60;;;;;;5034841;28;20184;-91
2023/05/27 12:00:58;;;;;;;24.67;18.70;;;21.10;52.00;;;;;;5032956;28;20177;-91
2023/05/27 12:03:24;;;;;;;30.73;19.27;;;21.50;49.40;;;;;;5034718;28;20209;-90
2023/05/27 12:05:49;;;;;;;22.70;18.48;;;21.50;51.20;;;;;;5039791;28;20251;-91
2023/05/27 12:08:15;;;;;;;24.20;18.13;;;21.30;49.90;;;;;;5035559;28;20265;-91
2023/05/27 12:10:40;;;;;;;21.08;18.77;;;20.80;52.00;;;;;;5034924;28;20190;-91
2023/05/27 12:13:06;;;;;;;25.35;18.85;;;21.10;49.00;;;;;;5030096;28;20256;-91
2023/05/27 12:15:32;;;;;;;26.65;18.88;;;21.20;50.80;;;;;;5030312;28;20173;-91
2023/05/27 12:17:58;;;;;;;29.02;19.65;;;21.40;51.10;;;;;;5031131;28;20178;-91
2023/05/27 12:20:28;;;;;;;21.00;18.17;;;21.50;50.40;;;;;;5030706;28;20173;-90
2023/05/27 12:22:55;;;;;;;21.73;18.30;;;21.50;49.30;;;;;;5032587;28;20212;-90
2023/05/27 12:25:30;;;;;;;22.05;18.70;;;21.60;50.10;;;;;;5033145;28;20594;-92
2023/05/27 12:27:56;;;;;;;28.98;18.98;;;21.60;48.90;;;;;;5030290;28;20165;-90
2023/05/27 12:30:22;;;;;;;23.70;19.45;;;21.30;47.70;;;;;;5015714;28;20173;-90
2023/05/27 12:32:50;;;;;;;23.55;18.60;;;21.20;47.90;;;;;;5016212;28;20204;-92
2023/05/27 12:35:16;;;;;;;22.33;17.92;;;21.50;49.30;;;;;;5015783;28;20185;-91
2023/05/27 12:37:41;;;;;;;20.80;18.17;;;21.70;46.90;;;;;;5017378;28;20185;-91
2023/05/27 12:40:12;;;;;;;21.30;18.35;;;21.40;46.10;;;;;;5014577;28;20667;-90